sensor_id;sensor_type;location;lat;lon;timestamp;P1;durP1;ratioP1;P2;durP2;ratioP2
36547;SDS011;22551;52.206;4.856;2023-07-31T00:04:02;13.90;;;2.92;;
36547;SDS011;22551;52.206;4.856;2023-07-31T00:09:06;12.85;;;3.22;;
36547;SDS011;22551;52.206;4.856;2023-07-31T00:14:08;14.43;;;4.50;;
36547;SDS011;22551;52.206;4.856;2023-07-31T00:19:10;17.63;;;4.78;;
36547;SDS011;22551;52.206;4.856;2023-07-31T00:24:14;25.13;;;6.43;;
36547;SDS011;22551;52.206;4.856;2023-07-31T00:29:17;18.25;;;5.00;;
36547;SDS011;22551;52.206;4.856;2023-07-31T00:34:19;12.70;;;4.30;;
36547;SDS011;22551;52.206;4.856;2023-07-31T00:39:23;9.85;;;3.55;;
36547;SDS011;22551;52.206;4.856;2023-07-31T00:44:28;9.63;;;3.08;;
36547;SDS011;22551;52.206;4.856;2023-07-31T00:49:32;7.00;;;2.13;;
36547;SDS011;22551;52.206;4.856;2023-07-31T00:54:38;9.55;;;2.35;;
36547;SDS011;22551;52.206;4.856;2023-07-31T00:59:42;5.00;;;1.95;;
36547;SDS011;22551;52.206;4.856;2023-07-31T01:09:52;3.60;;;1.67;;
36547;SDS011;22551;52.206;4.856;2023-07-31T01:15:05;8.55;;;2.28;;
36547;SDS011;22551;52.206;4.856;2023-07-31T01:20:12;9.32;;;3.30;;
36547;SDS011;22551;52.206;4.856;2023-07-31T01:25:23;12.25;;;3.63;;
36547;SDS011;22551;52.206;4.856;2023-07-31T01:30:50;15.80;;;5.25;;
36547;SDS011;22551;52.206;4.856;2023-07-31T01:35:57;19.15;;;5.38;;
36547;SDS011;22551;52.206;4.856;2023-07-31T01:41:02;18.65;;;4.75;;
36547;SDS011;22551;52.206;4.856;2023-07-31T01:46:06;15.57;;;5.30;;
36547;SDS011;22551;52.206;4.856;2023-07-31T01:51:09;25.65;;;5.60;;
36547;SDS011;22551;52.206;4.856;2023-07-31T02:01:18;21.52;;;4.95;;
36547;SDS011;22551;52.206;4.856;2023-07-31T02:06:21;19.88;;;5.63;;
36547;SDS011;22551;52.206;4.856;2023-07-31T02:16:34;23.50;;;6.22;;
36547;SDS011;22551;52.206;4.856;2023-07-31T02:21:38;21.92;;;6.13;;
36547;SDS011;22551;52.206;4.856;2023-07-31T02:26:42;24.88;;;5.95;;
36547;SDS011;22551;52.206;4.856;2023-07-31T02:31:45;14.88;;;5.40;;
36547;SDS011;22551;52.206;4.856;2023-07-31T02:36:47;28.13;;;5.63;;
36547;SDS011;22551;52.206;4.856;2023-07-31T02:41:51;25.80;;;5.72;;
36547;SDS011;22551;52.206;4.856;2023-07-31T02:46:53;22.25;;;4.75;;
36547;SDS011;22551;52.206;4.856;2023-07-31T02:51:55;22.98;;;5.47;;
36547;SDS011;22551;52.206;4.856;2023-07-31T02:56:59;22.77;;;4.88;;
36547;SDS011;22551;52.206;4.856;2023-07-31T03:02:02;26.40;;;4.47;;
36547;SDS011;22551;52.206;4.856;2023-07-31T03:07:06;28.23;;;5.30;;
36547;SDS011;22551;52.206;4.856;2023-07-31T03:12:10;22.00;;;5.45;;
36547;SDS011;22551;52.206;4.856;2023-07-31T03:17:12;14.70;;;4.50;;
36547;SDS011;22551;52.206;4.856;2023-07-31T03:22:15;21.05;;;6.80;;
36547;SDS011;22551;52.206;4.856;2023-07-31T03:27:19;27.00;;;5.30;;
36547;SDS011;22551;52.206;4.856;2023-07-31T03:32:22;15.82;;;4.65;;
36547;SDS011;22551;52.206;4.856;2023-07-31T03:37:24;28.10;;;5.28;;
36547;SDS011;22551;52.206;4.856;2023-07-31T03:42:28;21.77;;;5.40;;
36547;SDS011;22551;52.206;4.856;2023-07-31T03:47:30;18.58;;;4.18;;
36547;SDS011;22551;52.206;4.856;2023-07-31T03:52:32;23.10;;;5.10;;
36547;SDS011;22551;52.206;4.856;2023-07-31T03:57:36;26.20;;;4.55;;
36547;SDS011;22551;52.206;4.856;2023-07-31T04:02:38;21.13;;;4.60;;
36547;SDS011;22551;52.206;4.856;2023-07-31T04:07:40;19.92;;;5.13;;
36547;SDS011;22551;52.206;4.856;2023-07-31T04:12:44;29.67;;;5.30;;
36547;SDS011;22551;52.206;4.856;2023-07-31T04:17:46;19.93;;;4.80;;
36547;SDS011;22551;52.206;4.856;2023-07-31T04:22:48;28.02;;;4.93;;
36547;SDS011;22551;52.206;4.856;2023-07-31T04:27:52;24.50;;;5.22;;
36547;SDS011;22551;52.206;4.856;2023-07-31T04:32:54;13.90;;;4.17;;
36547;SDS011;22551;52.206;4.856;2023-07-31T04:37:56;17.75;;;4.43;;
36547;SDS011;22551;52.206;4.856;2023-07-31T04:43:01;8.52;;;3.38;;
36547;SDS011;22551;52.206;4.856;2023-07-31T04:48:03;8.70;;;3.03;;
36547;SDS011;22551;52.206;4.856;2023-07-31T04:53:06;11.45;;;2.80;;
36547;SDS011;22551;52.206;4.856;2023-07-31T04:58:09;7.63;;;3.08;;
36547;SDS011;22551;52.206;4.856;2023-07-31T05:03:12;14.13;;;4.43;;
36547;SDS011;22551;52.206;4.856;2023-07-31T05:08:14;8.95;;;3.20;;
36547;SDS011;22551;52.206;4.856;2023-07-31T05:13:19;7.63;;;2.33;;
36547;SDS011;22551;52.206;4.856;2023-07-31T05:18:21;6.43;;;2.63;;
36547;SDS011;22551;52.206;4.856;2023-07-31T05:23:23;5.15;;;2.05;;
36547;SDS011;22551;52.206;4.856;2023-07-31T05:28:27;5.93;;;2.08;;
36547;SDS011;22551;52.206;4.856;2023-07-31T05:33:29;2.17;;;1.67;;
36547;SDS011;22551;52.206;4.856;2023-07-31T05:38:32;4.85;;;1.88;;
36547;SDS011;22551;52.206;4.856;2023-07-31T05:43:35;4.95;;;1.83;;
36547;SDS011;22551;52.206;4.856;2023-07-31T05:48:38;5.15;;;2.30;;
36547;SDS011;22551;52.206;4.856;2023-07-31T05:53:40;4.32;;;1.88;;
36547;SDS011;22551;52.206;4.856;2023-07-31T05:58:45;4.70;;;1.98;;
36547;SDS011;22551;52.206;4.856;2023-07-31T06:03:48;3.10;;;1.70;;
36547;SDS011;22551;52.206;4.856;2023-07-31T06:08:51;4.03;;;1.75;;
36547;SDS011;22551;52.206;4.856;2023-07-31T06:13:55;6.10;;;1.92;;
36547;SDS011;22551;52.206;4.856;2023-07-31T06:18:57;2.27;;;1.53;;
36547;SDS011;22551;52.206;4.856;2023-07-31T06:23:59;3.25;;;1.02;;
36547;SDS011;22551;52.206;4.856;2023-07-31T06:29:03;4.47;;;1.42;;
36547;SDS011;22551;52.206;4.856;2023-07-31T06:34:05;2.00;;;1.17;;
36547;SDS011;22551;52.206;4.856;2023-07-31T06:39:08;5.07;;;1.20;;
36547;SDS011;22551;52.206;4.856;2023-07-31T06:44:11;3.17;;;1.02;;
36547;SDS011;22551;52.206;4.856;2023-07-31T06:49:14;1.30;;;0.77;;
36547;SDS011;22551;52.206;4.856;2023-07-31T06:54:16;0.98;;;0.52;;
36547;SDS011;22551;52.206;4.856;2023-07-31T06:59:20;1.20;;;0.90;;
36547;SDS011;22551;52.206;4.856;2023-07-31T07:04:23;1.90;;;0.77;;
36547;SDS011;22551;52.206;4.856;2023-07-31T07:09:26;2.57;;;0.80;;
36547;SDS011;22551;52.206;4.856;2023-07-31T07:14:31;2.70;;;0.85;;
36547;SDS011;22551;52.206;4.856;2023-07-31T07:19:33;2.08;;;0.70;;
36547;SDS011;22551;52.206;4.856;2023-07-31T07:24:36;0.57;;;0.40;;
36547;SDS011;22551;52.206;4.856;2023-07-31T07:29:40;0.57;;;0.43;;
36547;SDS011;22551;52.206;4.856;2023-07-31T07:34:42;0.40;;;0.28;;
36547;SDS011;22551;52.206;4.856;2023-07-31T07:44:50;0.50;;;0.10;;
36547;SDS011;22551;52.206;4.856;2023-07-31T07:49:52;2.63;;;0.20;;
36547;SDS011;22551;52.206;4.856;2023-07-31T07:54:55;1.05;;;0.30;;
36547;SDS011;22551;52.206;4.856;2023-07-31T07:59:59;2.80;;;0.25;;
36547;SDS011;22551;52.206;4.856;2023-07-31T08:05:01;1.98;;;0.30;;
36547;SDS011;22551;52.206;4.856;2023-07-31T08:10:04;0.57;;;0.17;;
36547;SDS011;22551;52.206;4.856;2023-07-31T08:15:09;0.40;;;0.37;;
36547;SDS011;22551;52.206;4.856;2023-07-31T08:25:14;0.20;;;0.20;;
36547;SDS011;22551;52.206;4.856;2023-07-31T08:30:18;0.38;;;0.20;;
36547;SDS011;22551;52.206;4.856;2023-07-31T08:35:21;0.98;;;0.40;;
36547;SDS011;22551;52.206;4.856;2023-07-31T08:40:23;0.20;;;0.20;;
36547;SDS011;22551;52.206;4.856;2023-07-31T08:45:31;0.30;;;0.20;;
36547;SDS011;22551;52.206;4.856;2023-07-31T08:50:35;1.73;;;0.63;;
36547;SDS011;22551;52.206;4.856;2023-07-31T08:55:37;7.35;;;1.25;;
36547;SDS011;22551;52.206;4.856;2023-07-31T09:00:41;2.70;;;0.70;;
36547;SDS011;22551;52.206;4.856;2023-07-31T09:05:46;4.72;;;1.05;;
36547;SDS011;22551;52.206;4.856;2023-07-31T09:10:49;7.35;;;1.60;;
36547;SDS011;22551;52.206;4.856;2023-07-31T09:15:53;5.47;;;1.73;;
36547;SDS011;22551;52.206;4.856;2023-07-31T09:21:02;8.25;;;1.98;;
36547;SDS011;22551;52.206;4.856;2023-07-31T09:26:05;10.55;;;1.92;;
36547;SDS011;22551;52.206;4.856;2023-07-31T09:31:10;8.70;;;1.27;;
36547;SDS011;22551;52.206;4.856;2023-07-31T09:36:13;9.73;;;2.33;;
36547;SDS011;22551;52.206;4.856;2023-07-31T09:41:16;9.40;;;1.88;;
36547;SDS011;22551;52.206;4.856;2023-07-31T09:46:20;5.97;;;2.33;;
36547;SDS011;22551;52.206;4.856;2023-07-31T09:51:25;8.75;;;2.28;;
36547;SDS011;22551;52.206;4.856;2023-07-31T09:56:28;10.77;;;2.22;;
36547;SDS011;22551;52.206;4.856;2023-07-31T10:01:34;9.95;;;3.25;;
36547;SDS011;22551;52.206;4.856;2023-07-31T10:06:38;12.20;;;2.47;;
36547;SDS011;22551;52.206;4.856;2023-07-31T10:11:45;5.75;;;2.42;;
36547;SDS011;22551;52.206;4.856;2023-07-31T10:16:57;6.25;;;1.60;;
36547;SDS011;22551;52.206;4.856;2023-07-31T10:22:00;7.75;;;1.45;;
36547;SDS011;22551;52.206;4.856;2023-07-31T10:27:04;10.77;;;2.10;;
36547;SDS011;22551;52.206;4.856;2023-07-31T10:32:10;9.50;;;2.67;;
36547;SDS011;22551;52.206;4.856;2023-07-31T10:37:19;9.00;;;1.77;;
36547;SDS011;22551;52.206;4.856;2023-07-31T10:42:32;9.80;;;1.85;;
36547;SDS011;22551;52.206;4.856;2023-07-31T10:47:38;6.78;;;2.38;;
36547;SDS011;22551;52.206;4.856;2023-07-31T10:52:44;8.75;;;1.60;;
36547;SDS011;22551;52.206;4.856;2023-07-31T10:57:49;8.40;;;2.35;;
36547;SDS011;22551;52.206;4.856;2023-07-31T11:02:59;6.65;;;1.60;;
36547;SDS011;22551;52.206;4.856;2023-07-31T11:08:10;12.05;;;2.20;;
36547;SDS011;22551;52.206;4.856;2023-07-31T11:13:14;11.18;;;2.22;;
36547;SDS011;22551;52.206;4.856;2023-07-31T11:18:17;10.23;;;2.08;;
36547;SDS011;22551;52.206;4.856;2023-07-31T11:23:21;9.18;;;2.72;;
36547;SDS011;22551;52.206;4.856;2023-07-31T11:28:24;7.88;;;1.33;;
36547;SDS011;22551;52.206;4.856;2023-07-31T11:33:28;4.78;;;1.23;;
36547;SDS011;22551;52.206;4.856;2023-07-31T11:38:31;10.45;;;1.55;;
36547;SDS011;22551;52.206;4.856;2023-07-31T11:43:35;8.40;;;1.38;;
36547;SDS011;22551;52.206;4.856;2023-07-31T11:48:39;7.85;;;1.88;;
36547;SDS011;22551;52.206;4.856;2023-07-31T11:53:42;7.38;;;1.80;;
36547;SDS011;22551;52.206;4.856;2023-07-31T11:58:49;6.97;;;2.05;;
36547;SDS011;22551;52.206;4.856;2023-07-31T12:03:56;6.90;;;1.70;;
36547;SDS011;22551;52.206;4.856;2023-07-31T12:09:00;8.55;;;1.50;;
36547;SDS011;22551;52.206;4.856;2023-07-31T12:14:05;4.57;;;1.60;;
36547;SDS011;22551;52.206;4.856;2023-07-31T12:19:09;5.30;;;1.23;;
36547;SDS011;22551;52.206;4.856;2023-07-31T12:24:12;4.20;;;1.17;;
36547;SDS011;22551;52.206;4.856;2023-07-31T12:29:14;7.85;;;1.38;;
36547;SDS011;22551;52.206;4.856;2023-07-31T12:34:19;7.10;;;1.38;;
36547;SDS011;22551;52.206;4.856;2023-07-31T12:39:22;3.55;;;0.90;;
36547;SDS011;22551;52.206;4.856;2023-07-31T12:44:25;2.00;;;1.40;;
36547;SDS011;22551;52.206;4.856;2023-07-31T12:49:29;6.38;;;1.40;;
36547;SDS011;22551;52.206;4.856;2023-07-31T12:54:31;4.70;;;1.20;;
36547;SDS011;22551;52.206;4.856;2023-07-31T12:59:35;7.60;;;2.10;;
36547;SDS011;22551;52.206;4.856;2023-07-31T13:04:39;5.93;;;1.75;;
36547;SDS011;22551;52.206;4.856;2023-07-31T13:09:41;5.05;;;1.60;;
36547;SDS011;22551;52.206;4.856;2023-07-31T13:14:44;4.40;;;1.15;;
36547;SDS011;22551;52.206;4.856;2023-07-31T13:19:47;3.70;;;1.20;;
36547;SDS011;22551;52.206;4.856;2023-07-31T13:24:50;3.28;;;1.05;;
36547;SDS011;22551;52.206;4.856;2023-07-31T13:29:52;7.15;;;1.42;;
36547;SDS011;22551;52.206;4.856;2023-07-31T13:34:55;4.55;;;1.35;;
36547;SDS011;22551;52.206;4.856;2023-07-31T13:39:58;1.00;;;0.45;;
36547;SDS011;22551;52.206;4.856;2023-07-31T13:45:00;0.73;;;0.40;;
36547;SDS011;22551;52.206;4.856;2023-07-31T13:50:04;1.83;;;0.50;;
36547;SDS011;22551;52.206;4.856;2023-07-31T13:55:07;2.08;;;0.80;;
36547;SDS011;22551;52.206;4.856;2023-07-31T14:00:11;1.70;;;1.00;;
36547;SDS011;22551;52.206;4.856;2023-07-31T14:05:16;3.95;;;1.00;;
36547;SDS011;22551;52.206;4.856;2023-07-31T14:10:18;2.47;;;0.85;;
36547;SDS011;22551;52.206;4.856;2023-07-31T14:15:20;3.05;;;0.80;;
36547;SDS011;22551;52.206;4.856;2023-07-31T14:20:24;3.17;;;0.68;;
36547;SDS011;22551;52.206;4.856;2023-07-31T14:25:27;1.15;;;0.50;;
36547;SDS011;22551;52.206;4.856;2023-07-31T14:30:30;0.82;;;0.30;;
36547;SDS011;22551;52.206;4.856;2023-07-31T14:35:34;2.40;;;0.70;;
36547;SDS011;22551;52.206;4.856;2023-07-31T14:40:36;0.57;;;0.30;;
36547;SDS011;22551;52.206;4.856;2023-07-31T14:45:39;0.60;;;0.28;;
36547;SDS011;22551;52.206;4.856;2023-07-31T14:50:43;2.28;;;0.30;;
36547;SDS011;22551;52.206;4.856;2023-07-31T14:55:45;0.80;;;0.30;;
36547;SDS011;22551;52.206;4.856;2023-07-31T15:00:47;0.63;;;0.20;;
36547;SDS011;22551;52.206;4.856;2023-07-31T15:05:51;1.88;;;0.38;;
36547;SDS011;22551;52.206;4.856;2023-07-31T15:10:54;0.55;;;0.30;;
36547;SDS011;22551;52.206;4.856;2023-07-31T15:15:58;0.20;;;0.13;;
36547;SDS011;22551;52.206;4.856;2023-07-31T15:21:02;0.63;;;0.30;;
36547;SDS011;22551;52.206;4.856;2023-07-31T15:31:17;0.13;;;0.10;;
36547;SDS011;22551;52.206;4.856;2023-07-31T15:36:21;0.82;;;0.22;;
36547;SDS011;22551;52.206;4.856;2023-07-31T15:41:23;2.10;;;0.30;;
36547;SDS011;22551;52.206;4.856;2023-07-31T15:46:26;0.40;;;0.10;;
36547;SDS011;22551;52.206;4.856;2023-07-31T15:51:30;0.50;;;0.30;;
36547;SDS011;22551;52.206;4.856;2023-07-31T15:56:32;0.40;;;0.22;;
36547;SDS011;22551;52.206;4.856;2023-07-31T16:01:35;0.77;;;0.45;;
36547;SDS011;22551;52.206;4.856;2023-07-31T16:06:38;1.70;;;0.85;;
36547;SDS011;22551;52.206;4.856;2023-07-31T16:11:41;6.55;;;0.57;;
36547;SDS011;22551;52.206;4.856;2023-07-31T16:16:43;0.88;;;0.30;;
36547;SDS011;22551;52.206;4.856;2023-07-31T16:21:48;0.38;;;0.38;;
36547;SDS011;22551;52.206;4.856;2023-07-31T16:26:50;1.40;;;0.57;;
36547;SDS011;22551;52.206;4.856;2023-07-31T16:31:52;0.52;;;0.50;;
36547;SDS011;22551;52.206;4.856;2023-07-31T16:36:56;0.75;;;0.70;;
36547;SDS011;22551;52.206;4.856;2023-07-31T16:41:58;1.35;;;0.47;;
36547;SDS011;22551;52.206;4.856;2023-07-31T16:47:00;1.67;;;0.57;;
36547;SDS011;22551;52.206;4.856;2023-07-31T16:52:04;3.67;;;1.70;;
36547;SDS011;22551;52.206;4.856;2023-07-31T16:57:08;1.15;;;0.90;;
36547;SDS011;22551;52.206;4.856;2023-07-31T17:02:10;1.65;;;0.50;;
36547;SDS011;22551;52.206;4.856;2023-07-31T17:07:15;1.58;;;0.60;;
36547;SDS011;22551;52.206;4.856;2023-07-31T17:12:18;5.30;;;1.35;;
36547;SDS011;22551;52.206;4.856;2023-07-31T17:17:20;5.22;;;1.00;;
36547;SDS011;22551;52.206;4.856;2023-07-31T17:22:25;2.35;;;1.13;;
36547;SDS011;22551;52.206;4.856;2023-07-31T17:27:27;6.68;;;1.33;;
36547;SDS011;22551;52.206;4.856;2023-07-31T17:32:29;2.88;;;1.15;;
36547;SDS011;22551;52.206;4.856;2023-07-31T17:37:33;7.13;;;1.10;;
36547;SDS011;22551;52.206;4.856;2023-07-31T17:42:35;5.72;;;1.05;;
36547;SDS011;22551;52.206;4.856;2023-07-31T17:47:37;4.65;;;0.95;;
36547;SDS011;22551;52.206;4.856;2023-07-31T17:52:41;3.17;;;0.80;;
36547;SDS011;22551;52.206;4.856;2023-07-31T17:57:43;8.32;;;1.73;;
36547;SDS011;22551;52.206;4.856;2023-07-31T18:02:46;4.35;;;1.00;;
36547;SDS011;22551;52.206;4.856;2023-07-31T18:07:49;6.50;;;1.33;;
36547;SDS011;22551;52.206;4.856;2023-07-31T18:12:52;4.30;;;1.13;;
36547;SDS011;22551;52.206;4.856;2023-07-31T18:17:56;12.93;;;1.70;;
36547;SDS011;22551;52.206;4.856;2023-07-31T18:23:00;8.38;;;1.60;;
36547;SDS011;22551;52.206;4.856;2023-07-31T18:28:02;10.35;;;2.00;;
36547;SDS011;22551;52.206;4.856;2023-07-31T18:33:05;12.52;;;2.20;;
36547;SDS011;22551;52.206;4.856;2023-07-31T18:38:08;9.02;;;1.73;;
36547;SDS011;22551;52.206;4.856;2023-07-31T18:43:10;8.27;;;1.40;;
36547;SDS011;22551;52.206;4.856;2023-07-31T18:48:13;8.05;;;1.17;;
36547;SDS011;22551;52.206;4.856;2023-07-31T18:53:16;11.10;;;1.90;;
36547;SDS011;22551;52.206;4.856;2023-07-31T18:58:19;5.78;;;1.38;;
36547;SDS011;22551;52.206;4.856;2023-07-31T19:03:21;11.80;;;2.63;;
36547;SDS011;22551;52.206;4.856;2023-07-31T19:08:26;8.60;;;1.77;;
36547;SDS011;22551;52.206;4.856;2023-07-31T19:13:28;10.57;;;1.40;;
36547;SDS011;22551;52.206;4.856;2023-07-31T19:18:31;8.02;;;2.58;;
36547;SDS011;22551;52.206;4.856;2023-07-31T19:23:35;8.07;;;1.40;;
36547;SDS011;22551;52.206;4.856;2023-07-31T19:28:38;7.03;;;1.52;;
36547;SDS011;22551;52.206;4.856;2023-07-31T19:33:40;5.03;;;1.48;;
36547;SDS011;22551;52.206;4.856;2023-07-31T19:38:44;4.28;;;1.05;;
36547;SDS011;22551;52.206;4.856;2023-07-31T19:43:46;2.67;;;0.70;;
36547;SDS011;22551;52.206;4.856;2023-07-31T19:48:49;4.30;;;1.15;;
36547;SDS011;22551;52.206;4.856;2023-07-31T19:53:54;1.75;;;1.02;;
36547;SDS011;22551;52.206;4.856;2023-07-31T19:58:56;2.77;;;0.80;;
36547;SDS011;22551;52.206;4.856;2023-07-31T20:03:59;1.73;;;0.70;;
36547;SDS011;22551;52.206;4.856;2023-07-31T20:09:03;2.58;;;0.80;;
36547;SDS011;22551;52.206;4.856;2023-07-31T20:14:05;1.77;;;0.90;;
36547;SDS011;22551;52.206;4.856;2023-07-31T20:19:08;3.35;;;0.85;;
36547;SDS011;22551;52.206;4.856;2023-07-31T20:24:12;4.88;;;1.33;;
36547;SDS011;22551;52.206;4.856;2023-07-31T20:29:14;6.00;;;1.50;;
36547;SDS011;22551;52.206;4.856;2023-07-31T20:34:17;10.48;;;1.85;;
36547;SDS011;22551;52.206;4.856;2023-07-31T20:39:21;4.47;;;1.73;;
36547;SDS011;22551;52.206;4.856;2023-07-31T20:44:23;6.13;;;1.65;;
36547;SDS011;22551;52.206;4.856;2023-07-31T20:49:26;4.30;;;1.30;;
36547;SDS011;22551;52.206;4.856;2023-07-31T20:54:30;7.10;;;1.60;;
36547;SDS011;22551;52.206;4.856;2023-07-31T20:59:33;3.58;;;1.60;;
36547;SDS011;22551;52.206;4.856;2023-07-31T21:04:37;7.93;;;1.20;;
36547;SDS011;22551;52.206;4.856;2023-07-31T21:09:40;5.82;;;1.00;;
36547;SDS011;22551;52.206;4.856;2023-07-31T21:14:44;8.15;;;1.40;;
36547;SDS011;22551;52.206;4.856;2023-07-31T21:19:46;9.98;;;1.35;;
36547;SDS011;22551;52.206;4.856;2023-07-31T21:24:51;8.93;;;1.30;;
36547;SDS011;22551;52.206;4.856;2023-07-31T21:29:53;4.70;;;1.30;;
36547;SDS011;22551;52.206;4.856;2023-07-31T21:34:58;5.95;;;0.93;;
36547;SDS011;22551;52.206;4.856;2023-07-31T21:40:01;2.88;;;1.30;;
36547;SDS011;22551;52.206;4.856;2023-07-31T21:45:05;10.45;;;0.90;;
36547;SDS011;22551;52.206;4.856;2023-07-31T21:50:08;7.50;;;1.90;;
36547;SDS011;22551;52.206;4.856;2023-07-31T21:55:13;6.13;;;1.52;;
36547;SDS011;22551;52.206;4.856;2023-07-31T22:00:15;5.10;;;1.30;;
36547;SDS011;22551;52.206;4.856;2023-07-31T22:05:17;3.65;;;1.13;;
36547;SDS011;22551;52.206;4.856;2023-07-31T22:10:21;5.68;;;1.55;;
36547;SDS011;22551;52.206;4.856;2023-07-31T22:15:23;9.37;;;1.33;;
36547;SDS011;22551;52.206;4.856;2023-07-31T22:20:26;2.60;;;1.80;;
36547;SDS011;22551;52.206;4.856;2023-07-31T22:25:30;7.72;;;2.15;;
36547;SDS011;22551;52.206;4.856;2023-07-31T22:30:33;2.78;;;1.30;;
36547;SDS011;22551;52.206;4.856;2023-07-31T22:35:35;7.32;;;1.80;;
36547;SDS011;22551;52.206;4.856;2023-07-31T22:40:39;3.42;;;1.70;;
36547;SDS011;22551;52.206;4.856;2023-07-31T22:45:44;3.43;;;1.50;;
36547;SDS011;22551;52.206;4.856;2023-07-31T22:50:47;4.47;;;1.48;;
36547;SDS011;22551;52.206;4.856;2023-07-31T22:55:50;3.58;;;1.70;;
36547;SDS011;22551;52.206;4.856;2023-07-31T23:01:00;6.77;;;1.90;;
36547;SDS011;22551;52.206;4.856;2023-07-31T23:06:03;4.72;;;2.15;;
36547;SDS011;22551;52.206;4.856;2023-07-31T23:11:07;4.82;;;1.73;;
36547;SDS011;22551;52.206;4.856;2023-07-31T23:16:09;3.33;;;1.67;;
36547;SDS011;22551;52.206;4.856;2023-07-31T23:21:11;1.65;;;1.30;;
36547;SDS011;22551;52.206;4.856;2023-07-31T23:26:15;3.88;;;2.17;;
36547;SDS011;22551;52.206;4.856;2023-07-31T23:31:18;2.60;;;1.73;;
36547;SDS011;22551;52.206;4.856;2023-07-31T23:36:20;6.30;;;1.60;;
36547;SDS011;22551;52.206;4.856;2023-07-31T23:41:24;3.80;;;1.40;;
36547;SDS011;22551;52.206;4.856;2023-07-31T23:46:26;2.60;;;1.45;;
36547;SDS011;22551;52.206;4.856;2023-07-31T23:51:30;2.40;;;1.40;;
36547;SDS011;22551;52.206;4.856;2023-07-31T23:56:34;5.13;;;1.80;;
